This is the latest recevied weather packets stored in our database for station/object KB3FKJ. If no packets are shown the sender has not sent any weather packets the latest 1 day(s).
| Time | Temp. | Humidity | Pressure | Rain* | Wind** | Luminosity | Snow |
|---|---|---|---|---|---|---|---|
| 1777996223 | 23.33° C | 49% | 1008.4 hPa | 0 mm | 3.13 m/s, 296° | 135 W/m² | - |
| 1777995919 | 23.33° C | 48% | 1008.5 hPa | 0 mm | 2.68 m/s, 268° | 153 W/m² | - |
| 1777995615 | 23.33° C | 49% | 1008.5 hPa | 0 mm | 2.68 m/s, 313° | 143 W/m² | - |
| 1777995313 | 22.22° C | 55% | 1008.5 hPa | 0 mm | 1.79 m/s, 247° | 204 W/m² | - |
| 1777995009 | 22.22° C | 49% | 1008.6 hPa | 0 mm | 4.92 m/s, 245° | 90 W/m² | - |
| 1777994706 | 22.78° C | 48% | 1008.4 hPa | 0 mm | 1.79 m/s, 238° | 128 W/m² | - |
| 1777994401 | 22.78° C | 49% | 1008.5 hPa | 0 mm | 2.68 m/s, 233° | 144 W/m² | - |
| 1777994091 | 22.78° C | 49% | 1008.4 hPa | 0 mm | 2.24 m/s, 256° | 160 W/m² | - |
| 1777993788 | 22.22° C | 49% | 1008.4 hPa | 0 mm | 3.13 m/s, 233° | 170 W/m² | - |
| 1777993480 | 22.22° C | 49% | 1008.5 hPa | 0 mm | 4.02 m/s, 267° | 149 W/m² | - |
| 1777993179 | 22.78° C | 50% | 1008.4 hPa | 0 mm | 3.13 m/s, 237° | 152 W/m² | - |
| 1777992878 | 22.78° C | 49% | 1008.4 hPa | 0 mm | 4.47 m/s, 292° | 177 W/m² | - |
| 1777992576 | 22.78° C | 49% | 1008.3 hPa | 0 mm | 3.58 m/s, 267° | 142 W/m² | - |
| 1777992273 | 22.22° C | 51% | 1008.1 hPa | 0 mm | 2.24 m/s, 159° | 122 W/m² | - |
| 1777991970 | 22.22° C | 50% | 1008.2 hPa | 0 mm | 1.79 m/s, 171° | 117 W/m² | - |
| 1777991668 | 22.22° C | 51% | 1008.4 hPa | 0 mm | 0.89 m/s, 300° | 141 W/m² | - |
| 1777991365 | 22.22° C | 53% | 1008.2 hPa | 0 mm | 1.34 m/s, 254° | 121 W/m² | - |
| 1777991062 | 22.22° C | 52% | 1008.3 hPa | 0 mm | 2.24 m/s, 209° | 130 W/m² | - |
| 1777990759 | 21.67° C | 55% | 1008.3 hPa | 0 mm | 1.34 m/s, 268° | 377 W/m² | - |
| 1777990456 | 21.67° C | 54% | 1008.3 hPa | 0 mm | 1.79 m/s, 149° | 220 W/m² | - |
| 1777990153 | 21.67° C | 55% | 1008.3 hPa | 0 mm | 0.89 m/s, 241° | 239 W/m² | - |
| 1777989850 | 21.67° C | 54% | 1008.3 hPa | 0 mm | 1.79 m/s, 289° | 195 W/m² | - |
| 1777989547 | 21.67° C | 54% | 1008.2 hPa | 0 mm | 0.89 m/s, 211° | 195 W/m² | - |
| 1777989244 | 21.11° C | 54% | 1008 hPa | 0 mm | 0.89 m/s, 220° | 123 W/m² | - |
| 1777988940 | 20.56° C | 56% | 1008 hPa | 0 mm | 0.89 m/s, 158° | 205 W/m² | - |
* Rain latest hour (hover to see other rain measurements)
** Current wind speed in m/s (hover to see current wind gust speed)